createdAt,value
2023-03-11T00:04:44.516Z,3.20
2023-03-11T00:11:02.962Z,3.20
2023-03-11T00:16:58.528Z,3.10
2023-03-11T00:22:53.448Z,3.10
2023-03-11T00:29:12.077Z,3.30
2023-03-11T00:35:31.135Z,3.40
2023-03-11T00:41:25.570Z,3.70
2023-03-11T00:47:22.146Z,4.00
2023-03-11T00:53:40.708Z,4.20
2023-03-11T00:59:59.607Z,4.30
2023-03-11T01:05:54.068Z,4.20
2023-03-11T01:11:48.577Z,4.30
2023-03-11T01:18:08.123Z,4.40
2023-03-11T01:24:27.511Z,4.30
2023-03-11T01:30:23.304Z,4.40
2023-03-11T01:36:17.862Z,4.40
2023-03-11T01:42:36.366Z,4.30
2023-03-11T01:48:55.304Z,4.30
2023-03-11T01:54:51.843Z,4.20
2023-03-11T02:00:46.553Z,4.30
2023-03-11T02:07:05.146Z,4.40
2023-03-11T02:13:23.546Z,4.40
2023-03-11T02:19:33.080Z,4.40
2023-03-11T02:25:34.809Z,4.40
2023-03-11T02:31:53.436Z,4.40
2023-03-11T02:38:14.422Z,4.50
2023-03-11T02:44:09.612Z,4.40
2023-03-11T02:50:04.574Z,4.50
2023-03-11T02:56:23.053Z,4.50
2023-03-11T03:02:41.765Z,4.50
2023-03-11T03:08:37.179Z,4.60
2023-03-11T03:14:31.829Z,4.60
2023-03-11T03:20:51.476Z,4.50
2023-03-11T03:27:09.841Z,4.40
2023-03-11T03:33:05.358Z,4.30
2023-03-11T03:38:59.900Z,4.30
2023-03-11T03:45:20.078Z,4.40
2023-03-11T03:51:38.471Z,4.50
2023-03-11T03:57:32.858Z,4.40
2023-03-11T04:03:27.719Z,4.50
2023-03-11T04:09:46.257Z,4.50
2023-03-11T04:16:05.097Z,4.60
2023-03-11T04:21:59.485Z,4.50
2023-03-11T04:27:53.974Z,4.60
2023-03-11T04:34:12.593Z,4.60
2023-03-11T04:40:30.984Z,4.70
2023-03-11T04:46:25.521Z,4.60
2023-03-11T04:52:21.057Z,4.70
2023-03-11T04:58:39.765Z,4.70
2023-03-11T05:04:59.346Z,4.70
2023-03-11T05:10:53.806Z,4.70
2023-03-11T05:16:48.267Z,4.60
2023-03-11T05:23:06.773Z,4.50
2023-03-11T05:29:25.367Z,4.30
2023-03-11T05:35:22.030Z,4.20
2023-03-11T05:41:16.595Z,4.00
2023-03-11T05:47:35.119Z,3.90
2023-03-11T05:53:53.647Z,3.60
2023-03-11T05:59:48.005Z,3.40
2023-03-11T06:05:49.282Z,3.20
2023-03-11T06:12:08.218Z,3.00
2023-03-11T06:18:26.952Z,2.90
2023-03-11T06:24:21.310Z,2.80
2023-03-11T06:30:16.066Z,2.70
2023-03-11T06:36:34.640Z,2.60
2023-03-11T06:42:52.995Z,2.70
2023-03-11T06:48:47.482Z,2.80
2023-03-11T06:54:42.115Z,3.00
2023-03-11T07:01:02.272Z,3.50
2023-03-11T07:07:21.406Z,3.90
2023-03-11T07:13:15.936Z,4.20
2023-03-11T07:19:10.658Z,4.40
2023-03-11T07:25:29.147Z,4.70
2023-03-11T07:31:49.235Z,5.00
2023-03-11T07:37:43.728Z,5.30
2023-03-11T07:43:38.500Z,5.70
2023-03-11T07:49:57.375Z,6.10
2023-03-11T07:56:16.975Z,5.80
2023-03-11T08:02:11.909Z,5.30
2023-03-11T08:08:06.444Z,5.30
2023-03-11T08:14:24.923Z,5.50
2023-03-11T08:20:45.258Z,5.80
2023-03-11T08:26:40.685Z,6.00
2023-03-11T08:32:35.166Z,5.90
2023-03-11T08:38:53.817Z,5.80
2023-03-11T08:45:12.246Z,5.90
2023-03-11T08:51:10.902Z,6.00
2023-03-11T08:57:05.523Z,6.00
2023-03-11T09:03:24.004Z,6.30
2023-03-11T09:09:42.444Z,6.50
2023-03-11T09:15:36.835Z,6.70
2023-03-11T09:21:31.312Z,6.70
2023-03-11T09:27:49.846Z,6.90
2023-03-11T09:34:10.084Z,7.90
2023-03-11T09:40:04.592Z,8.30
2023-03-11T09:46:37.943Z,8.00
2023-03-11T09:53:18.964Z,7.90
2023-03-11T09:59:37.418Z,7.90
2023-03-11T10:05:33.259Z,7.70
2023-03-11T10:11:28.236Z,7.70
2023-03-11T10:18:22.036Z,7.80
2023-03-11T10:24:49.777Z,7.60
2023-03-11T10:30:54.707Z,7.60
2023-03-11T10:37:07.208Z,8.10
2023-03-11T10:43:37.231Z,8.20
2023-03-11T10:49:55.703Z,8.20
2023-03-11T10:55:54.229Z,8.10
2023-03-11T11:02:03.435Z,8.40
2023-03-11T11:08:22.196Z,8.70
2023-03-11T11:14:50.772Z,8.50
2023-03-11T11:20:54.193Z,9.30
2023-03-11T11:27:11.608Z,9.90
2023-03-11T11:33:40.564Z,9.70
2023-03-11T11:40:00.561Z,9.30
2023-03-11T11:45:59.772Z,8.90
2023-03-11T11:51:56.129Z,8.90
2023-03-11T11:58:14.657Z,8.90
2023-03-11T12:04:42.384Z,8.60
2023-03-11T12:10:41.818Z,8.40
2023-03-11T12:16:42.491Z,8.30
2023-03-11T12:23:11.407Z,9.20
2023-03-11T12:29:36.987Z,9.70
2023-03-11T12:35:33.408Z,10.10
2023-03-11T12:41:43.153Z,10.10
2023-03-11T12:48:29.449Z,9.50
2023-03-11T12:54:57.047Z,9.20
2023-03-11T13:00:54.785Z,9.50
2023-03-11T13:06:56.788Z,8.30
2023-03-11T13:13:32.511Z,7.60
2023-03-11T13:19:51.758Z,7.60
2023-03-11T13:25:49.993Z,7.60
2023-03-11T13:32:03.063Z,7.70
2023-03-11T13:38:41.764Z,7.70
2023-03-11T13:45:00.145Z,7.80
2023-03-11T13:50:59.487Z,8.30
2023-03-11T13:57:01.367Z,8.10
2023-03-11T14:03:22.262Z,7.90
2023-03-11T14:09:40.664Z,8.50
2023-03-11T14:15:41.209Z,8.10
2023-03-11T14:21:35.907Z,8.90
2023-03-11T14:27:56.266Z,9.60
2023-03-11T14:34:15.695Z,9.30
2023-03-11T14:40:25.795Z,9.40
2023-03-11T14:46:25.545Z,9.00
2023-03-11T14:52:46.198Z,9.40
2023-03-11T14:59:08.006Z,9.10
2023-03-11T15:05:03.905Z,8.40
2023-03-11T15:11:22.333Z,8.30
2023-03-11T15:17:44.396Z,8.90
2023-03-11T15:24:05.303Z,9.00
2023-03-11T15:29:59.913Z,8.50
2023-03-11T15:35:54.439Z,8.30
2023-03-11T15:42:15.815Z,8.20
2023-03-11T15:48:34.244Z,8.30
2023-03-11T15:54:28.674Z,8.70
2023-03-11T16:00:24.480Z,8.60
2023-03-11T16:06:43.130Z,8.30
2023-03-11T16:14:52.340Z,8.20
2023-03-11T16:20:47.650Z,8.10
2023-03-11T16:26:42.108Z,7.90
2023-03-11T16:33:03.328Z,7.80
2023-03-11T16:39:22.819Z,8.00
2023-03-11T16:45:17.350Z,7.80
2023-03-11T16:51:11.915Z,7.50
2023-03-11T16:57:30.416Z,7.40
2023-03-11T17:03:52.708Z,7.20
2023-03-11T17:09:47.087Z,7.20
2023-03-11T17:15:44.496Z,7.10
2023-03-11T17:22:02.993Z,7.20
2023-03-11T17:28:21.404Z,7.00
2023-03-11T17:34:17.466Z,7.00
2023-03-11T17:40:12.485Z,7.00
2023-03-11T17:46:31.330Z,6.90
2023-03-11T17:52:49.718Z,6.80
2023-03-11T17:58:44.280Z,6.80
2023-03-11T18:04:39.473Z,6.70
2023-03-11T18:11:03.117Z,6.50
2023-03-11T18:17:21.554Z,6.40
2023-03-11T18:23:15.917Z,6.30
2023-03-11T18:29:10.377Z,6.10
2023-03-11T18:35:29.382Z,6.20
2023-03-11T18:41:47.796Z,6.10
2023-03-11T18:47:42.201Z,6.00
2023-03-11T18:53:37.718Z,6.00
2023-03-11T18:59:56.198Z,6.20
2023-03-11T19:06:16.699Z,6.20
2023-03-11T19:12:11.150Z,6.10
2023-03-11T19:18:07.211Z,6.10
2023-03-11T19:24:25.846Z,6.20
2023-03-11T19:30:44.285Z,6.10
2023-03-11T19:36:39.536Z,6.20
2023-03-11T19:42:34.329Z,6.20
2023-03-11T19:48:56.746Z,6.30
2023-03-11T19:55:15.444Z,6.20
2023-03-11T20:01:19.431Z,6.10
2023-03-11T20:07:13.980Z,6.00
2023-03-11T20:13:33.738Z,6.00
2023-03-11T20:19:52.160Z,6.00
2023-03-11T20:25:46.564Z,6.00
2023-03-11T20:31:41.147Z,6.00
2023-03-11T20:37:59.790Z,6.00
2023-03-11T20:44:18.287Z,5.90
2023-03-11T20:50:12.800Z,6.00
2023-03-11T20:56:12.003Z,5.90
2023-03-11T21:02:33.475Z,6.00
2023-03-11T21:08:55.010Z,5.90
2023-03-11T21:14:49.730Z,6.00
2023-03-11T21:20:44.398Z,6.00
2023-03-11T21:27:02.979Z,6.10
2023-03-11T21:33:21.478Z,6.10
2023-03-11T21:39:16.099Z,6.10
2023-03-11T21:45:11.283Z,6.00
2023-03-11T21:51:30.331Z,6.00
2023-03-11T21:57:48.837Z,6.00
2023-03-11T22:03:43.937Z,5.90
2023-03-11T22:09:38.611Z,5.90
2023-03-11T22:15:57.149Z,5.90
2023-03-11T22:22:15.641Z,6.00
2023-03-11T22:28:12.988Z,6.10
2023-03-11T22:34:07.518Z,6.00
2023-03-11T22:40:27.046Z,6.00
2023-03-11T22:46:45.490Z,6.00
2023-03-11T22:52:39.940Z,6.10
2023-03-11T22:58:34.435Z,6.10
2023-03-11T23:04:52.914Z,6.10
2023-03-11T23:11:13.579Z,6.00
2023-03-11T23:17:09.110Z,5.90
2023-03-11T23:23:04.044Z,5.90
2023-03-11T23:29:22.484Z,5.90
2023-03-11T23:35:41.882Z,5.90
2023-03-11T23:41:37.990Z,6.00
2023-03-11T23:47:32.515Z,6.00
2023-03-11T23:54:02.994Z,5.90
